sensor_id;sensor_type;location;lat;lon;timestamp;P1;durP1;ratioP1;P2;durP2;ratioP2
1410;SDS011;700;51.906;8.404;2022-10-16T00:01:29;4.63;;;4.00;;
1410;SDS011;700;51.906;8.404;2022-10-16T00:06:32;15.43;;;4.93;;
1410;SDS011;700;51.906;8.404;2022-10-16T00:11:34;5.10;;;4.53;;
1410;SDS011;700;51.906;8.404;2022-10-16T00:16:39;4.80;;;4.30;;
1410;SDS011;700;51.906;8.404;2022-10-16T00:21:40;8.73;;;4.87;;
1410;SDS011;700;51.906;8.404;2022-10-16T00:26:43;5.50;;;4.40;;
1410;SDS011;700;51.906;8.404;2022-10-16T00:31:43;5.40;;;4.33;;
1410;SDS011;700;51.906;8.404;2022-10-16T00:36:44;5.00;;;4.50;;
1410;SDS011;700;51.906;8.404;2022-10-16T00:41:45;5.00;;;4.17;;
1410;SDS011;700;51.906;8.404;2022-10-16T00:46:48;5.43;;;4.07;;
1410;SDS011;700;51.906;8.404;2022-10-16T00:51:50;5.90;;;4.77;;
1410;SDS011;700;51.906;8.404;2022-10-16T00:56:56;5.00;;;4.50;;
1410;SDS011;700;51.906;8.404;2022-10-16T01:02:00;6.20;;;5.60;;
1410;SDS011;700;51.906;8.404;2022-10-16T01:12:34;6.43;;;5.73;;
1410;SDS011;700;51.906;8.404;2022-10-16T01:18:18;7.57;;;5.30;;
1410;SDS011;700;51.906;8.404;2022-10-16T01:28:50;5.40;;;4.90;;
1410;SDS011;700;51.906;8.404;2022-10-16T01:33:57;6.20;;;5.43;;
1410;SDS011;700;51.906;8.404;2022-10-16T01:39:02;5.20;;;4.47;;
1410;SDS011;700;51.906;8.404;2022-10-16T01:44:07;7.93;;;5.67;;
1410;SDS011;700;51.906;8.404;2022-10-16T01:49:13;8.77;;;5.30;;
1410;SDS011;700;51.906;8.404;2022-10-16T01:54:14;7.10;;;5.20;;
1410;SDS011;700;51.906;8.404;2022-10-16T01:59:18;5.40;;;4.70;;
1410;SDS011;700;51.906;8.404;2022-10-16T02:04:23;6.40;;;4.30;;
1410;SDS011;700;51.906;8.404;2022-10-16T02:09:27;7.53;;;5.00;;
1410;SDS011;700;51.906;8.404;2022-10-16T02:14:30;6.37;;;5.20;;
1410;SDS011;700;51.906;8.404;2022-10-16T02:19:33;6.03;;;4.80;;
1410;SDS011;700;51.906;8.404;2022-10-16T02:29:47;5.20;;;4.57;;
1410;SDS011;700;51.906;8.404;2022-10-16T02:35:01;5.70;;;5.20;;
1410;SDS011;700;51.906;8.404;2022-10-16T02:40:02;9.90;;;5.30;;
1410;SDS011;700;51.906;8.404;2022-10-16T02:45:05;5.67;;;4.37;;
1410;SDS011;700;51.906;8.404;2022-10-16T02:50:09;6.53;;;4.23;;
1410;SDS011;700;51.906;8.404;2022-10-16T02:55:10;8.60;;;4.70;;
1410;SDS011;700;51.906;8.404;2022-10-16T03:00:12;5.40;;;4.07;;
1410;SDS011;700;51.906;8.404;2022-10-16T03:05:16;5.37;;;4.10;;
1410;SDS011;700;51.906;8.404;2022-10-16T03:10:17;7.17;;;4.30;;
1410;SDS011;700;51.906;8.404;2022-10-16T03:15:18;5.80;;;3.50;;
1410;SDS011;700;51.906;8.404;2022-10-16T03:20:19;5.90;;;4.10;;
1410;SDS011;700;51.906;8.404;2022-10-16T03:25:22;6.03;;;3.90;;
1410;SDS011;700;51.906;8.404;2022-10-16T03:30:22;5.50;;;4.30;;
1410;SDS011;700;51.906;8.404;2022-10-16T03:35:23;3.80;;;3.30;;
1410;SDS011;700;51.906;8.404;2022-10-16T03:40:24;3.83;;;3.40;;
1410;SDS011;700;51.906;8.404;2022-10-16T03:45:25;6.87;;;3.70;;
1410;SDS011;700;51.906;8.404;2022-10-16T03:50:28;6.00;;;3.47;;
1410;SDS011;700;51.906;8.404;2022-10-16T03:55:34;4.63;;;3.13;;
1410;SDS011;700;51.906;8.404;2022-10-16T04:00:35;3.63;;;2.83;;
1410;SDS011;700;51.906;8.404;2022-10-16T04:05:38;5.20;;;2.93;;
1410;SDS011;700;51.906;8.404;2022-10-16T04:10:42;5.00;;;3.20;;
1410;SDS011;700;51.906;8.404;2022-10-16T04:15:45;5.70;;;3.10;;
1410;SDS011;700;51.906;8.404;2022-10-16T04:20:46;6.13;;;3.10;;
1410;SDS011;700;51.906;8.404;2022-10-16T04:25:46;3.30;;;2.60;;
1410;SDS011;700;51.906;8.404;2022-10-16T04:30:47;4.13;;;2.60;;
1410;SDS011;700;51.906;8.404;2022-10-16T04:35:48;2.77;;;2.53;;
1410;SDS011;700;51.906;8.404;2022-10-16T04:40:48;3.70;;;2.53;;
1410;SDS011;700;51.906;8.404;2022-10-16T04:45:51;6.17;;;2.97;;
1410;SDS011;700;51.906;8.404;2022-10-16T04:50:52;2.40;;;2.07;;
1410;SDS011;700;51.906;8.404;2022-10-16T04:55:52;3.50;;;2.60;;
1410;SDS011;700;51.906;8.404;2022-10-16T05:00:57;3.10;;;2.40;;
1410;SDS011;700;51.906;8.404;2022-10-16T05:06:00;5.60;;;2.70;;
1410;SDS011;700;51.906;8.404;2022-10-16T05:11:04;4.80;;;2.10;;
1410;SDS011;700;51.906;8.404;2022-10-16T05:16:07;3.57;;;2.30;;
1410;SDS011;700;51.906;8.404;2022-10-16T05:21:07;2.80;;;2.13;;
1410;SDS011;700;51.906;8.404;2022-10-16T05:26:08;3.20;;;2.33;;
1410;SDS011;700;51.906;8.404;2022-10-16T05:31:12;2.50;;;2.30;;
1410;SDS011;700;51.906;8.404;2022-10-16T05:36:17;2.47;;;2.27;;
1410;SDS011;700;51.906;8.404;2022-10-16T05:41:23;3.63;;;2.90;;
1410;SDS011;700;51.906;8.404;2022-10-16T05:46:26;3.00;;;1.97;;
1410;SDS011;700;51.906;8.404;2022-10-16T05:51:26;6.70;;;2.47;;
1410;SDS011;700;51.906;8.404;2022-10-16T05:56:27;3.10;;;2.00;;
1410;SDS011;700;51.906;8.404;2022-10-16T06:01:28;2.70;;;2.23;;
1410;SDS011;700;51.906;8.404;2022-10-16T06:06:31;3.37;;;2.20;;
1410;SDS011;700;51.906;8.404;2022-10-16T06:11:36;3.43;;;2.70;;
1410;SDS011;700;51.906;8.404;2022-10-16T06:16:37;3.10;;;2.40;;
1410;SDS011;700;51.906;8.404;2022-10-16T06:21:38;2.70;;;2.37;;
1410;SDS011;700;51.906;8.404;2022-10-16T06:26:43;3.30;;;2.20;;
1410;SDS011;700;51.906;8.404;2022-10-16T06:31:46;3.57;;;2.20;;
1410;SDS011;700;51.906;8.404;2022-10-16T06:36:48;2.60;;;2.07;;
1410;SDS011;700;51.906;8.404;2022-10-16T06:41:49;5.33;;;1.87;;
1410;SDS011;700;51.906;8.404;2022-10-16T06:46:50;4.00;;;1.67;;
1410;SDS011;700;51.906;8.404;2022-10-16T06:51:51;1.80;;;1.57;;
1410;SDS011;700;51.906;8.404;2022-10-16T06:56:51;2.50;;;2.00;;
1410;SDS011;700;51.906;8.404;2022-10-16T07:01:54;3.10;;;2.03;;
1410;SDS011;700;51.906;8.404;2022-10-16T07:06:59;3.30;;;1.73;;
1410;SDS011;700;51.906;8.404;2022-10-16T07:12:02;2.37;;;1.70;;
1410;SDS011;700;51.906;8.404;2022-10-16T07:17:03;2.10;;;1.37;;
1410;SDS011;700;51.906;8.404;2022-10-16T07:22:04;4.90;;;1.70;;
1410;SDS011;700;51.906;8.404;2022-10-16T07:27:05;3.17;;;1.40;;
1410;SDS011;700;51.906;8.404;2022-10-16T07:32:05;3.60;;;2.20;;
1410;SDS011;700;51.906;8.404;2022-10-16T07:37:11;4.13;;;1.80;;
1410;SDS011;700;51.906;8.404;2022-10-16T07:42:14;2.63;;;1.60;;
1410;SDS011;700;51.906;8.404;2022-10-16T07:47:15;2.57;;;1.60;;
1410;SDS011;700;51.906;8.404;2022-10-16T07:52:17;2.07;;;1.70;;
1410;SDS011;700;51.906;8.404;2022-10-16T07:57:18;2.80;;;2.40;;
1410;SDS011;700;51.906;8.404;2022-10-16T08:02:20;3.97;;;1.80;;
1410;SDS011;700;51.906;8.404;2022-10-16T08:07:20;3.20;;;1.90;;
1410;SDS011;700;51.906;8.404;2022-10-16T08:12:21;1.80;;;1.50;;
1410;SDS011;700;51.906;8.404;2022-10-16T08:17:24;2.53;;;1.20;;
1410;SDS011;700;51.906;8.404;2022-10-16T08:22:25;3.00;;;1.50;;
1410;SDS011;700;51.906;8.404;2022-10-16T08:27:30;1.80;;;1.30;;
1410;SDS011;700;51.906;8.404;2022-10-16T08:32:39;2.00;;;1.40;;
1410;SDS011;700;51.906;8.404;2022-10-16T08:37:44;2.77;;;1.40;;
1410;SDS011;700;51.906;8.404;2022-10-16T08:53:31;1.40;;;1.00;;
1410;SDS011;700;51.906;8.404;2022-10-16T08:58:39;2.07;;;1.20;;
1410;SDS011;700;51.906;8.404;2022-10-16T09:03:52;5.03;;;1.10;;
1410;SDS011;700;51.906;8.404;2022-10-16T09:14:57;3.90;;;1.00;;
1410;SDS011;700;51.906;8.404;2022-10-16T09:25:28;1.30;;;0.90;;
1410;SDS011;700;51.906;8.404;2022-10-16T09:30:32;1.37;;;0.90;;
1410;SDS011;700;51.906;8.404;2022-10-16T09:35:36;1.60;;;0.90;;
1410;SDS011;700;51.906;8.404;2022-10-16T09:40:44;2.60;;;1.10;;
1410;SDS011;700;51.906;8.404;2022-10-16T09:45:53;1.80;;;0.80;;
1410;SDS011;700;51.906;8.404;2022-10-16T09:51:15;1.70;;;0.90;;
1410;SDS011;700;51.906;8.404;2022-10-16T09:56:23;3.80;;;1.30;;
1410;SDS011;700;51.906;8.404;2022-10-16T10:01:43;1.60;;;1.00;;
1410;SDS011;700;51.906;8.404;2022-10-16T10:06:49;3.30;;;1.00;;
1410;SDS011;700;51.906;8.404;2022-10-16T10:11:53;4.80;;;0.90;;
1410;SDS011;700;51.906;8.404;2022-10-16T10:17:16;3.13;;;1.10;;
1410;SDS011;700;51.906;8.404;2022-10-16T10:22:43;2.30;;;1.00;;
1410;SDS011;700;51.906;8.404;2022-10-16T10:27:53;2.60;;;0.90;;
1410;SDS011;700;51.906;8.404;2022-10-16T10:54:26;2.20;;;0.90;;
1410;SDS011;700;51.906;8.404;2022-10-16T11:10:33;2.70;;;1.10;;
1410;SDS011;700;51.906;8.404;2022-10-16T11:15:45;2.23;;;0.87;;
1410;SDS011;700;51.906;8.404;2022-10-16T11:20:56;2.03;;;0.87;;
1410;SDS011;700;51.906;8.404;2022-10-16T11:26:02;2.13;;;0.83;;
1410;SDS011;700;51.906;8.404;2022-10-16T11:31:17;4.03;;;1.03;;
1410;SDS011;700;51.906;8.404;2022-10-16T11:36:41;3.60;;;1.00;;
1410;SDS011;700;51.906;8.404;2022-10-16T11:41:48;2.13;;;0.93;;
1410;SDS011;700;51.906;8.404;2022-10-16T11:57:42;2.30;;;1.30;;
1410;SDS011;700;51.906;8.404;2022-10-16T12:02:58;2.30;;;0.93;;
1410;SDS011;700;51.906;8.404;2022-10-16T12:08:13;3.40;;;0.83;;
1410;SDS011;700;51.906;8.404;2022-10-16T12:13:36;3.33;;;1.07;;
1410;SDS011;700;51.906;8.404;2022-10-16T12:18:39;3.47;;;1.20;;
1410;SDS011;700;51.906;8.404;2022-10-16T12:28:52;2.10;;;0.90;;
1410;SDS011;700;51.906;8.404;2022-10-16T12:33:56;5.10;;;1.67;;
1410;SDS011;700;51.906;8.404;2022-10-16T12:39:02;1.90;;;0.90;;
1410;SDS011;700;51.906;8.404;2022-10-16T12:44:21;2.63;;;1.33;;
1410;SDS011;700;51.906;8.404;2022-10-16T12:49:32;2.93;;;1.23;;
1410;SDS011;700;51.906;8.404;2022-10-16T12:54:48;2.80;;;1.20;;
1410;SDS011;700;51.906;8.404;2022-10-16T12:59:54;2.90;;;1.40;;
1410;SDS011;700;51.906;8.404;2022-10-16T13:11:03;6.30;;;1.20;;
1410;SDS011;700;51.906;8.404;2022-10-16T13:21:33;1.77;;;1.00;;
1410;SDS011;700;51.906;8.404;2022-10-16T13:31:57;1.70;;;1.10;;
1410;SDS011;700;51.906;8.404;2022-10-16T13:37:00;2.43;;;1.20;;
1410;SDS011;700;51.906;8.404;2022-10-16T13:42:04;1.80;;;0.90;;
1410;SDS011;700;51.906;8.404;2022-10-16T13:47:18;1.83;;;0.90;;
1410;SDS011;700;51.906;8.404;2022-10-16T13:52:20;2.30;;;0.90;;
1410;SDS011;700;51.906;8.404;2022-10-16T13:57:24;2.00;;;1.20;;
1410;SDS011;700;51.906;8.404;2022-10-16T14:02:29;1.73;;;0.80;;
1410;SDS011;700;51.906;8.404;2022-10-16T14:07:37;2.63;;;0.90;;
1410;SDS011;700;51.906;8.404;2022-10-16T14:12:42;2.08;;;0.80;;
1410;SDS011;700;51.906;8.404;2022-10-16T14:17:43;1.43;;;0.77;;
1410;SDS011;700;51.906;8.404;2022-10-16T14:22:48;2.87;;;0.97;;
1410;SDS011;700;51.906;8.404;2022-10-16T14:33:20;1.70;;;1.00;;
1410;SDS011;700;51.906;8.404;2022-10-16T14:38:24;3.13;;;1.00;;
1410;SDS011;700;51.906;8.404;2022-10-16T14:43:31;2.10;;;0.90;;
1410;SDS011;700;51.906;8.404;2022-10-16T14:48:39;3.17;;;1.00;;
1410;SDS011;700;51.906;8.404;2022-10-16T14:53:45;2.27;;;1.87;;
1410;SDS011;700;51.906;8.404;2022-10-16T14:58:46;9.47;;;1.10;;
1410;SDS011;700;51.906;8.404;2022-10-16T15:03:47;2.90;;;1.00;;
1410;SDS011;700;51.906;8.404;2022-10-16T15:08:54;4.00;;;2.80;;
1410;SDS011;700;51.906;8.404;2022-10-16T15:13:55;3.90;;;1.30;;
1410;SDS011;700;51.906;8.404;2022-10-16T15:18:56;2.43;;;1.10;;
1410;SDS011;700;51.906;8.404;2022-10-16T15:23:57;3.30;;;1.13;;
1410;SDS011;700;51.906;8.404;2022-10-16T15:28:59;3.43;;;1.10;;
1410;SDS011;700;51.906;8.404;2022-10-16T15:33:59;3.40;;;1.10;;
1410;SDS011;700;51.906;8.404;2022-10-16T15:39:04;2.07;;;1.07;;
1410;SDS011;700;51.906;8.404;2022-10-16T15:44:10;2.50;;;1.60;;
1410;SDS011;700;51.906;8.404;2022-10-16T15:49:13;2.07;;;1.10;;
1410;SDS011;700;51.906;8.404;2022-10-16T15:54:18;2.33;;;1.10;;
1410;SDS011;700;51.906;8.404;2022-10-16T15:59:21;2.50;;;1.70;;
1410;SDS011;700;51.906;8.404;2022-10-16T16:04:22;3.50;;;1.30;;
1410;SDS011;700;51.906;8.404;2022-10-16T16:09:23;2.53;;;1.40;;
1410;SDS011;700;51.906;8.404;2022-10-16T16:14:26;4.60;;;1.80;;
1410;SDS011;700;51.906;8.404;2022-10-16T16:19:30;3.30;;;1.53;;
1410;SDS011;700;51.906;8.404;2022-10-16T16:24:34;4.70;;;1.77;;
1410;SDS011;700;51.906;8.404;2022-10-16T16:29:37;2.10;;;1.37;;
1410;SDS011;700;51.906;8.404;2022-10-16T16:34:39;3.13;;;1.33;;
1410;SDS011;700;51.906;8.404;2022-10-16T16:39:40;3.20;;;1.60;;
1410;SDS011;700;51.906;8.404;2022-10-16T16:44:41;3.60;;;1.90;;
1410;SDS011;700;51.906;8.404;2022-10-16T16:49:41;7.67;;;4.03;;
1410;SDS011;700;51.906;8.404;2022-10-16T16:54:42;4.80;;;4.30;;
1410;SDS011;700;51.906;8.404;2022-10-16T16:59:44;8.13;;;5.17;;
1410;SDS011;700;51.906;8.404;2022-10-16T17:04:45;7.27;;;5.23;;
1410;SDS011;700;51.906;8.404;2022-10-16T17:09:46;18.93;;;8.90;;
1410;SDS011;700;51.906;8.404;2022-10-16T17:14:47;24.27;;;11.23;;
1410;SDS011;700;51.906;8.404;2022-10-16T17:19:50;8.33;;;6.43;;
1410;SDS011;700;51.906;8.404;2022-10-16T17:24:51;7.10;;;5.00;;
1410;SDS011;700;51.906;8.404;2022-10-16T17:29:55;9.43;;;5.07;;
1410;SDS011;700;51.906;8.404;2022-10-16T17:34:56;6.10;;;3.10;;
1410;SDS011;700;51.906;8.404;2022-10-16T17:39:57;6.80;;;4.23;;
1410;SDS011;700;51.906;8.404;2022-10-16T17:45:00;7.40;;;4.50;;
1410;SDS011;700;51.906;8.404;2022-10-16T17:50:03;8.30;;;4.40;;
1410;SDS011;700;51.906;8.404;2022-10-16T17:55:04;6.37;;;3.13;;
1410;SDS011;700;51.906;8.404;2022-10-16T18:00:05;10.20;;;3.07;;
1410;SDS011;700;51.906;8.404;2022-10-16T18:05:07;4.03;;;3.40;;
1410;SDS011;700;51.906;8.404;2022-10-16T18:10:08;5.03;;;3.47;;
1410;SDS011;700;51.906;8.404;2022-10-16T18:15:10;5.43;;;4.30;;
1410;SDS011;700;51.906;8.404;2022-10-16T18:20:11;6.50;;;4.80;;
1410;SDS011;700;51.906;8.404;2022-10-16T18:25:11;5.13;;;4.30;;
1410;SDS011;700;51.906;8.404;2022-10-16T18:30:12;9.20;;;5.00;;
1410;SDS011;700;51.906;8.404;2022-10-16T18:35:13;6.93;;;4.90;;
1410;SDS011;700;51.906;8.404;2022-10-16T18:40:16;6.20;;;4.53;;
1410;SDS011;700;51.906;8.404;2022-10-16T18:45:19;5.00;;;3.40;;
1410;SDS011;700;51.906;8.404;2022-10-16T18:50:20;4.50;;;3.73;;
1410;SDS011;700;51.906;8.404;2022-10-16T18:55:21;7.47;;;3.77;;
1410;SDS011;700;51.906;8.404;2022-10-16T19:00:23;6.50;;;3.07;;
1410;SDS011;700;51.906;8.404;2022-10-16T19:05:26;4.87;;;3.30;;
1410;SDS011;700;51.906;8.404;2022-10-16T19:10:28;6.77;;;2.93;;
1410;SDS011;700;51.906;8.404;2022-10-16T19:15:29;7.53;;;3.60;;
1410;SDS011;700;51.906;8.404;2022-10-16T19:20:30;5.03;;;3.47;;
1410;SDS011;700;51.906;8.404;2022-10-16T19:25:37;5.80;;;3.63;;
1410;SDS011;700;51.906;8.404;2022-10-16T19:30:39;4.60;;;2.90;;
1410;SDS011;700;51.906;8.404;2022-10-16T19:35:46;4.30;;;3.20;;
1410;SDS011;700;51.906;8.404;2022-10-16T19:40:49;4.47;;;3.00;;
1410;SDS011;700;51.906;8.404;2022-10-16T19:45:49;5.03;;;3.60;;
1410;SDS011;700;51.906;8.404;2022-10-16T19:50:52;4.77;;;3.50;;
1410;SDS011;700;51.906;8.404;2022-10-16T19:55:54;6.20;;;3.90;;
1410;SDS011;700;51.906;8.404;2022-10-16T20:00:55;3.77;;;2.70;;
1410;SDS011;700;51.906;8.404;2022-10-16T20:05:57;5.47;;;3.43;;
1410;SDS011;700;51.906;8.404;2022-10-16T20:11:05;5.40;;;3.03;;
1410;SDS011;700;51.906;8.404;2022-10-16T20:16:13;4.73;;;2.97;;
1410;SDS011;700;51.906;8.404;2022-10-16T20:21:24;3.27;;;2.80;;
1410;SDS011;700;51.906;8.404;2022-10-16T20:26:26;4.50;;;2.87;;
1410;SDS011;700;51.906;8.404;2022-10-16T20:31:30;4.77;;;2.50;;
1410;SDS011;700;51.906;8.404;2022-10-16T20:36:34;3.47;;;2.20;;
1410;SDS011;700;51.906;8.404;2022-10-16T20:41:37;4.43;;;2.50;;
1410;SDS011;700;51.906;8.404;2022-10-16T20:46:37;3.80;;;2.60;;
1410;SDS011;700;51.906;8.404;2022-10-16T20:51:38;5.50;;;2.53;;
1410;SDS011;700;51.906;8.404;2022-10-16T20:56:38;4.60;;;2.60;;
1410;SDS011;700;51.906;8.404;2022-10-16T21:01:41;3.53;;;2.50;;
1410;SDS011;700;51.906;8.404;2022-10-16T21:06:44;4.47;;;2.40;;
1410;SDS011;700;51.906;8.404;2022-10-16T21:11:44;3.00;;;2.50;;
1410;SDS011;700;51.906;8.404;2022-10-16T21:16:45;4.27;;;2.63;;
1410;SDS011;700;51.906;8.404;2022-10-16T21:21:46;6.97;;;3.87;;
1410;SDS011;700;51.906;8.404;2022-10-16T21:26:46;2.93;;;2.70;;
1410;SDS011;700;51.906;8.404;2022-10-16T21:31:47;3.70;;;2.33;;
1410;SDS011;700;51.906;8.404;2022-10-16T21:36:50;4.80;;;2.30;;
1410;SDS011;700;51.906;8.404;2022-10-16T21:41:51;3.23;;;2.90;;
1410;SDS011;700;51.906;8.404;2022-10-16T21:46:51;2.90;;;2.50;;
1410;SDS011;700;51.906;8.404;2022-10-16T21:51:52;4.43;;;2.67;;
1410;SDS011;700;51.906;8.404;2022-10-16T21:56:53;4.63;;;2.60;;
1410;SDS011;700;51.906;8.404;2022-10-16T22:01:56;4.73;;;2.40;;
1410;SDS011;700;51.906;8.404;2022-10-16T22:06:56;4.17;;;2.40;;
1410;SDS011;700;51.906;8.404;2022-10-16T22:12:00;5.13;;;2.80;;
1410;SDS011;700;51.906;8.404;2022-10-16T22:17:00;3.00;;;2.70;;
1410;SDS011;700;51.906;8.404;2022-10-16T22:22:03;8.13;;;2.63;;
1410;SDS011;700;51.906;8.404;2022-10-16T22:27:04;3.00;;;2.43;;
1410;SDS011;700;51.906;8.404;2022-10-16T22:32:07;3.57;;;2.10;;
1410;SDS011;700;51.906;8.404;2022-10-16T22:37:09;2.57;;;2.00;;
1410;SDS011;700;51.906;8.404;2022-10-16T22:42:15;3.90;;;2.67;;
1410;SDS011;700;51.906;8.404;2022-10-16T22:47:15;3.30;;;2.73;;
1410;SDS011;700;51.906;8.404;2022-10-16T22:52:18;8.40;;;3.63;;
1410;SDS011;700;51.906;8.404;2022-10-16T22:57:19;5.83;;;2.40;;
1410;SDS011;700;51.906;8.404;2022-10-16T23:02:20;4.30;;;2.93;;
1410;SDS011;700;51.906;8.404;2022-10-16T23:07:20;4.30;;;3.23;;
1410;SDS011;700;51.906;8.404;2022-10-16T23:12:21;4.80;;;2.83;;
1410;SDS011;700;51.906;8.404;2022-10-16T23:17:27;5.53;;;3.17;;
1410;SDS011;700;51.906;8.404;2022-10-16T23:22:27;4.80;;;3.00;;
1410;SDS011;700;51.906;8.404;2022-10-16T23:27:28;3.87;;;3.53;;
1410;SDS011;700;51.906;8.404;2022-10-16T23:32:28;6.10;;;3.47;;
1410;SDS011;700;51.906;8.404;2022-10-16T23:37:29;4.10;;;3.30;;
1410;SDS011;700;51.906;8.404;2022-10-16T23:42:30;6.83;;;3.50;;
1410;SDS011;700;51.906;8.404;2022-10-16T23:47:30;7.20;;;4.20;;
1410;SDS011;700;51.906;8.404;2022-10-16T23:52:31;5.80;;;4.43;;
1410;SDS011;700;51.906;8.404;2022-10-16T23:57:34;6.23;;;5.00;;
